Time;durP1;ratioP1;P1;durP2;ratioP2;P2;SDS_P1;SDS_P2;PMS_P1;PMS_P2;Temp;Humidity;BMP_temperature;BMP_pressure;BME280_temperature;BME280_humidity;BME280_pressure;Samples;Min_cycle;Max_cycle;Signal;HPM_P1;HPM_P2
2023/04/04 00:00:32;;;;;;;;;;;;;;;;;;5045026;28;19928;-76
2023/04/04 00:02:58;;;;;;;;;;;;;;;;;;5036823;28;20603;-77
2023/04/04 00:05:24;;;;;;;;;;;;;;;;;;5053514;28;19940;-76
2023/04/04 00:07:51;;;;;;;;;;;;;;;;;;5055332;28;19935;-77
2023/04/04 00:10:17;;;;;;;;;;;;;;;;;;5035164;28;19929;-77
2023/04/04 00:12:42;;;;;;;;;;;;;;;;;;5057514;28;19931;-76
2023/04/04 00:15:08;;;;;;;;;;;;;;;;;;5038078;28;19932;-77
2023/04/04 00:17:34;;;;;;;;;;;;;;;;;;5036611;28;19931;-76
2023/04/04 00:20:00;;;;;;;;;;;;;;;;;;5037499;28;19952;-75
2023/04/04 00:22:27;;;;;;;;;;;;;;;;;;5032287;28;20755;-76
2023/04/04 00:24:53;;;;;;;;;;;;;;;;;;5034800;28;19972;-77
2023/04/04 00:27:18;;;;;;;;;;;;;;;;;;5036762;28;19979;-76
2023/04/04 00:29:45;;;;;;;;;;;;;;;;;;5053838;28;20717;-75
2023/04/04 00:32:11;;;;;;;;;;;;;;;;;;5033196;28;19980;-75
2023/04/04 00:34:37;;;;;;;;;;;;;;;;;;5037475;28;19967;-76
2023/04/04 00:37:06;;;;;;;;;;;;;;;;;;5030968;28;19930;-77
2023/04/04 00:39:32;;;;;;;;;;;;;;;;;;5033358;28;20426;-77
2023/04/04 00:41:58;;;;;;;;;;;;;;;;;;5032653;28;20372;-75
2023/04/04 00:44:24;;;;;;;;;;;;;;;;;;5026334;28;19990;-75
2023/04/04 00:46:49;;;;;;;;;;;;;;;;;;5032670;28;19928;-76
2023/04/04 00:49:16;;;;;;;;;;;;;;;;;;5032605;28;19939;-76
2023/04/04 00:51:42;;;;;;;;;;;;;;;;;;5032805;28;20039;-77
2023/04/04 00:54:08;;;;;;;;;;;;;;;;;;5030193;28;19929;-77
2023/04/04 00:56:33;;;;;;;;;;;;;;;;;;5033588;28;20528;-76
2023/04/04 00:58:59;;;;;;;;;;;;;;;;;;5035514;28;19929;-77
2023/04/04 01:01:25;;;;;;;;;;;;;;;;;;5043228;28;19940;-77
2023/04/04 01:03:51;;;;;;;;;;;;;;;;;;5044490;28;20308;-76
2023/04/04 01:06:17;;;;;;;;;;;;;;;;;;5034258;28;19928;-76
2023/04/04 01:08:43;;;;;;;;;;;;;;;;;;5039361;28;20338;-77
2023/04/04 01:11:09;;;;;;;;;;;;;;;;;;5048094;28;19929;-77
2023/04/04 01:13:35;;;;;;;;;;;;;;;;;;5039801;28;20477;-78
2023/04/04 01:16:01;;;;;;;;;;;;;;;;;;5034278;28;20336;-77
2023/04/04 01:18:27;;;;;;;;;;;;;;;;;;5032328;28;20027;-77
2023/04/04 01:20:53;;;;;;;;;;;;;;;;;;5037248;28;20485;-78
2023/04/04 01:23:19;;;;;;;;;;;;;;;;;;5034134;28;19928;-77
2023/04/04 01:25:45;;;;;;;;;;;;;;;;;;5024316;28;20028;-77
2023/04/04 01:28:11;;;;;;;;;;;;;;;;;;5040813;28;19950;-77
2023/04/04 01:30:36;;;;;;;;;;;;;;;;;;5035347;28;19932;-77
2023/04/04 01:33:02;;;;;;;;;;;;;;;;;;5035778;28;20059;-77
2023/04/04 01:35:28;;;;;;;;;;;;;;;;;;5037075;28;19931;-76
2023/04/04 01:37:55;;;;;;;;;;;;;;;;;;5038004;28;20346;-76
2023/04/04 01:40:21;;;;;;;;;;;;;;;;;;5036491;28;19953;-75
2023/04/04 01:42:46;;;;;;;;;;;;;;;;;;5037847;28;19929;-76
2023/04/04 01:45:12;;;;;;;;;;;;;;;;;;5037661;28;19928;-76
2023/04/04 01:47:38;;;;;;;;;;;;;;;;;;5034487;28;19924;-76
2023/04/04 01:50:04;;;;;;;;;;;;;;;;;;5038872;28;19932;-76
2023/04/04 01:52:30;;;;;;;;;;;;;;;;;;5039549;28;19928;-75
2023/04/04 01:54:57;;;;;;;;;;;;;;;;;;5039140;28;19940;-76
2023/04/04 01:57:22;;;;;;;;;;;;;;;;;;5039816;28;19929;-76
2023/04/04 01:59:48;;;;;;;;;;;;;;;;;;5038576;28;19925;-76
2023/04/04 02:02:15;;;;;;;;;;;;;;;;;;5036389;28;19982;-77
2023/04/04 02:04:41;;;;;;;;;;;;;;;;;;5045855;28;19925;-77
2023/04/04 02:07:07;;;;;;;;;;;;;;;;;;5033184;28;19932;-76
2023/04/04 02:09:33;;;;;;;;;;;;;;;;;;5039857;28;19928;-76
2023/04/04 02:11:58;;;;;;;;;;;;;;;;;;5039977;28;19924;-76
2023/04/04 02:14:24;;;;;;;;;;;;;;;;;;5039852;28;20288;-77
2023/04/04 02:16:50;;;;;;;;;;;;;;;;;;5036454;28;19948;-77
2023/04/04 02:19:17;;;;;;;;;;;;;;;;;;5036051;28;19935;-77
2023/04/04 02:21:43;;;;;;;;;;;;;;;;;;5026204;28;20406;-77
2023/04/04 02:24:09;;;;;;;;;;;;;;;;;;5039444;28;20015;-77
2023/04/04 02:26:35;;;;;;;;;;;;;;;;;;5035358;28;20416;-77
2023/04/04 02:29:01;;;;;;;;;;;;;;;;;;5038855;28;19928;-77
2023/04/04 02:31:27;;;;;;;;;;;;;;;;;;5039259;28;19982;-78
2023/04/04 02:33:53;;;;;;;;;;;;;;;;;;5035176;28;20027;-77
2023/04/04 02:36:19;;;;;;;;;;;;;;;;;;5036202;28;19928;-76
2023/04/04 02:38:45;;;;;;;;;;;;;;;;;;5058508;28;19924;-77
2023/04/04 02:41:11;;;;;;;;;;;;;;;;;;5052301;28;20051;-76
2023/04/04 02:43:37;;;;;;;;;;;;;;;;;;5059557;28;19928;-77
2023/04/04 02:46:02;;;;;;;;;;;;;;;;;;5053320;28;20644;-76
2023/04/04 02:48:29;;;;;;;;;;;;;;;;;;5053603;28;19966;-76
2023/04/04 02:50:54;;;;;;;;;;;;;;;;;;5032465;28;19929;-76
2023/04/04 02:53:21;;;;;;;;;;;;;;;;;;5037464;28;19940;-76
2023/04/04 02:55:47;;;;;;;;;;;;;;;;;;5053022;28;19928;-76
2023/04/04 02:58:13;;;;;;;;;;;;;;;;;;5056923;28;20286;-78
2023/04/04 03:00:39;;;;;;;;;;;;;;;;;;5037119;28;19928;-76
2023/04/04 03:03:05;;;;;;;;;;;;;;;;;;5052020;28;19929;-76
2023/04/04 03:05:31;;;;;;;;;;;;;;;;;;5031528;28;19932;-78
2023/04/04 03:07:57;;;;;;;;;;;;;;;;;;5040985;28;20311;-76
2023/04/04 03:10:23;;;;;;;;;;;;;;;;;;5038359;28;19925;-77
2023/04/04 03:12:49;;;;;;;;;;;;;;;;;;5052152;28;19974;-78
2023/04/04 03:15:15;;;;;;;;;;;;;;;;;;5044385;28;19936;-77
2023/04/04 03:17:41;;;;;;;;;;;;;;;;;;5059572;28;20287;-77
2023/04/04 03:20:07;;;;;;;;;;;;;;;;;;5035157;28;19936;-77
2023/04/04 03:22:33;;;;;;;;;;;;;;;;;;5033315;28;20393;-77
2023/04/04 03:24:59;;;;;;;;;;;;;;;;;;5043064;28;19939;-77
2023/04/04 03:27:25;;;;;;;;;;;;;;;;;;5026488;28;19928;-76
2023/04/04 03:29:51;;;;;;;;;;;;;;;;;;5052058;28;19929;-75
2023/04/04 03:32:17;;;;;;;;;;;;;;;;;;5054817;28;20434;-77
2023/04/04 03:34:43;;;;;;;;;;;;;;;;;;5036730;28;20019;-76
2023/04/04 03:37:09;;;;;;;;;;;;;;;;;;5054385;28;19958;-76
2023/04/04 03:39:35;;;;;;;;;;;;;;;;;;5021214;28;19933;-76
2023/04/04 03:42:01;;;;;;;;;;;;;;;;;;5035036;28;20061;-77
2023/04/04 03:44:27;;;;;;;;;;;;;;;;;;5057783;28;20025;-76
2023/04/04 03:46:53;;;;;;;;;;;;;;;;;;5055068;28;19928;-78
2023/04/04 03:49:20;;;;;;;;;;;;;;;;;;5036755;28;20397;-76
2023/04/04 03:51:47;;;;;;;;;;;;;;;;;;5021915;28;20431;-78
2023/04/04 03:54:13;;;;;;;;;;;;;;;;;;5022774;28;19929;-78
2023/04/04 03:56:39;;;;;;;;;;;;;;;;;;5036189;28;19940;-79
2023/04/04 03:59:05;;;;;;;;;;;;;;;;;;5054807;28;19932;-77
2023/04/04 04:01:31;;;;;;;;;;;;;;;;;;5022735;28;19928;-78
2023/04/04 04:03:59;;;;;;;;;;;;;;;;;;5037600;28;19981;-78
2023/04/04 04:06:26;;;;;;;;;;;;;;;;;;5037242;28;19934;-77
2023/04/04 04:08:52;;;;;;;;;;;;;;;;;;5053280;28;20014;-77
2023/04/04 04:11:18;;;;;;;;;;;;;;;;;;5036785;28;20525;-78
2023/04/04 04:13:44;;;;;;;;;;;;;;;;;;5031545;28;19978;-79
2023/04/04 04:16:10;;;;;;;;;;;;;;;;;;5021104;28;19939;-79
2023/04/04 04:18:36;;;;;;;;;;;;;;;;;;5035459;28;20506;-76
2023/04/04 04:21:02;;;;;;;;;;;;;;;;;;5037151;28;19939;-76
2023/04/04 04:23:28;;;;;;;;;;;;;;;;;;5022338;28;20023;-76
2023/04/04 04:25:54;;;;;;;;;;;;;;;;;;5019093;28;20358;-77
2023/04/04 04:28:20;;;;;;;;;;;;;;;;;;5037073;28;19936;-74
2023/04/04 04:30:46;;;;;;;;;;;;;;;;;;5032248;28;19929;-75
2023/04/04 04:33:12;;;;;;;;;;;;;;;;;;5053701;28;19955;-75
2023/04/04 04:35:41;;;;;;;;;;;;;;;;;;5046848;28;19928;-76
2023/04/04 04:38:07;;;;;;;;;;;;;;;;;;5055933;28;19933;-76
2023/04/04 04:40:33;;;;;;;;;;;;;;;;;;5051163;28;19990;-73
2023/04/04 04:42:59;;;;;;;;;;;;;;;;;;5054501;28;20377;-76
2023/04/04 04:45:25;;;;;;;;;;;;;;;;;;5053802;28;19932;-75
2023/04/04 04:47:51;;;;;;;;;;;;;;;;;;5047300;28;19929;-74
2023/04/04 04:50:17;;;;;;;;;;;;;;;;;;5056068;28;19928;-76
2023/04/04 04:52:43;;;;;;;;;;;;;;;;;;5053025;28;20294;-75
2023/04/04 04:55:09;;;;;;;;;;;;;;;;;;5035483;28;19932;-76
2023/04/04 04:57:35;;;;;;;;;;;;;;;;;;5033748;28;20466;-76
2023/04/04 05:00:02;;;;;;;;;;;;;;;;;;5017717;28;19924;-75
2023/04/04 05:02:28;;;;;;;;;;;;;;;;;;5031477;28;19971;-76
2023/04/04 05:04:54;;;;;;;;;;;;;;;;;;5036661;28;19929;-74
2023/04/04 05:07:20;;;;;;;;;;;;;;;;;;5033497;28;20506;-75
2023/04/04 05:09:49;;;;;;;;;;;;;;;;;;5034696;28;20435;-74
2023/04/04 05:12:15;;;;;;;;;;;;;;;;;;5034907;28;19959;-79
2023/04/04 05:14:41;;;;;;;;;;;;;;;;;;5050940;28;19932;-76
2023/04/04 05:17:07;;;;;;;;;;;;;;;;;;5034040;28;19932;-76
2023/04/04 05:19:32;;;;;;;;;;;;;;;;;;5052057;28;20088;-75
2023/04/04 05:21:58;;;;;;;;;;;;;;;;;;5055987;28;19928;-76
2023/04/04 05:24:24;;;;;;;;;;;;;;;;;;5033007;28;19929;-75
2023/04/04 05:26:50;;;;;;;;;;;;;;;;;;5035608;28;19986;-77
2023/04/04 05:29:16;;;;;;;;;;;;;;;;;;5038337;28;19929;-78
2023/04/04 05:31:42;;;;;;;;;;;;;;;;;;5035655;28;19982;-78
2023/04/04 05:34:08;;;;;;;;;;;;;;;;;;5051363;28;19928;-77
2023/04/04 05:36:34;;;;;;;;;;;;;;;;;;5034324;28;20367;-77
2023/04/04 05:39:00;;;;;;;;;;;;;;;;;;5052591;28;19935;-76
2023/04/04 05:41:26;;;;;;;;;;;;;;;;;;5034909;28;19929;-78
2023/04/04 05:43:52;;;;;;;;;;;;;;;;;;5017703;28;20391;-78
2023/04/04 05:46:18;;;;;;;;;;;;;;;;;;5038075;28;19932;-77
2023/04/04 05:48:47;;;;;;;;;;;;;;;;;;5040318;28;19936;-77
2023/04/04 05:51:13;;;;;;;;;;;;;;;;;;5016410;28;20023;-80
2023/04/04 05:53:39;;;;;;;;;;;;;;;;;;5043432;28;19993;-80
2023/04/04 05:56:05;;;;;;;;;;;;;;;;;;5020618;28;20375;-79
2023/04/04 05:58:30;;;;;;;;;;;;;;;;;;5038510;28;19928;-78
2023/04/04 06:00:56;;;;;;;;;;;;;;;;;;5030802;28;19937;-79
2023/04/04 06:03:22;;;;;;;;;;;;;;;;;;5035599;28;20338;-79
2023/04/04 06:05:48;;;;;;;;;;;;;;;;;;5054336;28;20281;-80
2023/04/04 06:08:14;;;;;;;;;;;;;;;;;;5030730;28;19970;-80
2023/04/04 06:10:40;;;;;;;;;;;;;;;;;;5056945;28;20299;-80
2023/04/04 06:13:06;;;;;;;;;;;;;;;;;;5021256;28;19928;-78
2023/04/04 06:15:33;;;;;;;;;;;;;;;;;;5014967;28;20031;-80
2023/04/04 06:17:58;;;;;;;;;;;;;;;;;;5044054;28;20001;-80
2023/04/04 06:20:24;;;;;;;;;;;;;;;;;;5032173;28;19975;-80
2023/04/04 06:22:50;;;;;;;;;;;;;;;;;;5035934;28;19936;-80
2023/04/04 06:25:16;;;;;;;;;;;;;;;;;;5040065;28;20019;-80
2023/04/04 06:27:42;;;;;;;;;;;;;;;;;;5037641;28;20007;-80
2023/04/04 06:30:09;;;;;;;;;;;;;;;;;;5034331;28;20444;-78
2023/04/04 06:32:34;;;;;;;;;;;;;;;;;;5014685;28;19994;-79
2023/04/04 06:35:01;;;;;;;;;;;;;;;;;;5026764;28;20414;-79
2023/04/04 06:37:27;;;;;;;;;;;;;;;;;;5018861;28;19933;-77
2023/04/04 06:39:52;;;;;;;;;;;;;;;;;;5044050;28;20083;-79
2023/04/04 06:42:18;;;;;;;;;;;;;;;;;;5038475;28;19944;-79
2023/04/04 06:44:44;;;;;;;;;;;;;;;;;;5039544;28;20408;-79
2023/04/04 06:47:10;;;;;;;;;;;;;;;;;;5044552;28;19925;-80
2023/04/04 06:49:36;;;;;;;;;;;;;;;;;;5047493;28;20059;-80
2023/04/04 06:52:02;;;;;;;;;;;;;;;;;;5032781;28;19978;-80
2023/04/04 06:54:28;;;;;;;;;;;;;;;;;;5039875;28;19951;-78
2023/04/04 06:56:54;;;;;;;;;;;;;;;;;;5053106;28;20392;-79
2023/04/04 06:59:20;;;;;;;;;;;;;;;;;;5058325;28;19932;-78
2023/04/04 07:01:49;;;;;;;;;;;;;;;;;;5056804;28;19967;-79
2023/04/04 07:04:15;;;;;;;;;;;;;;;;;;5065897;28;19928;-79
2023/04/04 07:06:41;;;;;;;;;;;;;;;;;;5053177;28;19924;-77
2023/04/04 07:09:07;;;;;;;;;;;;;;;;;;5055887;28;20304;-78
2023/04/04 07:11:33;;;;;;;;;;;;;;;;;;5040893;28;19928;-77
2023/04/04 07:13:58;;;;;;;;;;;;;;;;;;5033694;28;20673;-77
2023/04/04 07:16:25;;;;;;;;;;;;;;;;;;5039820;28;19932;-78
2023/04/04 07:18:51;;;;;;;;;;;;;;;;;;5025454;28;19933;-77
2023/04/04 07:21:17;;;;;;;;;;;;;;;;;;5039536;28;20044;-77
2023/04/04 07:23:43;;;;;;;;;;;;;;;;;;5034618;28;20014;-78
2023/04/04 07:26:09;;;;;;;;;;;;;;;;;;5034381;28;19928;-77
2023/04/04 07:28:35;;;;;;;;;;;;;;;;;;5040376;28;19932;-77
2023/04/04 07:31:02;;;;;;;;;;;;;;;;;;5038651;28;20364;-76
2023/04/04 07:33:28;;;;;;;;;;;;;;;;;;5060835;28;19955;-77
2023/04/04 07:35:54;;;;;;;;;;;;;;;;;;5055301;28;20981;-76
2023/04/04 07:38:20;;;;;;;;;;;;;;;;;;5037016;28;19929;-76
2023/04/04 07:40:45;;;;;;;;;;;;;;;;;;5034619;28;20031;-76
2023/04/04 07:43:11;;;;;;;;;;;;;;;;;;5051349;28;20708;-78
2023/04/04 07:45:37;;;;;;;;;;;;;;;;;;5012959;28;20008;-75
2023/04/04 07:48:03;;;;;;;;;;;;;;;;;;5035862;28;20677;-76
2023/04/04 07:50:29;;;;;;;;;;;;;;;;;;5041805;28;19928;-77
2023/04/04 07:52:57;;;;;;;;;;;;;;;;;;5033599;28;19925;-76
2023/04/04 07:55:24;;;;;;;;;;;;;;;;;;5051397;28;19935;-75
2023/04/04 07:57:50;;;;;;;;;;;;;;;;;;5041244;28;20455;-76
2023/04/04 08:00:20;;;;;;;;;;;;;;;;;;5045740;28;19958;-76
2023/04/04 08:02:46;;;;;;;;;;;;;;;;;;5017268;28;19972;-76
2023/04/04 08:05:12;;;;;;;;;;;;;;;;;;5048936;28;19972;-76
2023/04/04 08:07:38;;;;;;;;;;;;;;;;;;5035360;28;19963;-76
2023/04/04 08:10:03;;;;;;;;;;;;;;;;;;5014546;28;20266;-76
2023/04/04 08:12:29;;;;;;;;;;;;;;;;;;5017356;28;20446;-76
2023/04/04 08:14:55;;;;;;;;;;;;;;;;;;5012049;28;19921;-76
2023/04/04 08:17:21;;;;;;;;;;;;;;;;;;5015298;28;19933;-77
2023/04/04 08:19:47;;;;;;;;;;;;;;;;;;4999918;28;20087;-77
2023/04/04 08:22:13;;;;;;;;;;;;;;;;;;5019418;28;20011;-78
2023/04/04 08:24:39;;;;;;;;;;;;;;;;;;5003582;28;19933;-76
2023/04/04 08:27:05;;;;;;;;;;;;;;;;;;5016930;28;20019;-78
2023/04/04 08:29:31;;;;;;;;;;;;;;;;;;5026138;28;20043;-77
2023/04/04 08:31:57;;;;;;;;;;;;;;;;;;5009447;28;19928;-77
2023/04/04 08:34:23;;;;;;;;;;;;;;;;;;5014834;28;19929;-77
2023/04/04 08:36:49;;;;;;;;;;;;;;;;;;5032053;28;20017;-77
2023/04/04 08:39:15;;;;;;;;;;;;;;;;;;5019874;28;20670;-78
2023/04/04 08:41:41;;;;;;;;;;;;;;;;;;5030280;28;19960;-76
2023/04/04 08:44:07;;;;;;;;;;;;;;;;;;5032794;28;19936;-77
2023/04/04 08:46:33;;;;;;;;;;;;;;;;;;4993886;28;19928;-77
2023/04/04 08:48:59;;;;;;;;;;;;;;;;;;5013747;28;19933;-78
2023/04/04 08:51:25;;;;;;;;;;;;;;;;;;5010635;28;19933;-78
2023/04/04 08:53:51;;;;;;;;;;;;;;;;;;5026696;28;19936;-77
2023/04/04 08:56:17;;;;;;;;;;;;;;;;;;5030100;28;20277;-77
2023/04/04 08:58:43;;;;;;;;;;;;;;;;;;5027902;28;20063;-78
2023/04/04 09:01:08;;;;;;;;;;;;;;;;;;5029504;28;19925;-77
2023/04/04 09:03:35;;;;;;;;;;;;;;;;;;5005812;28;19943;-76
2023/04/04 09:06:01;;;;;;;;;;;;;;;;;;5030834;28;19928;-77
2023/04/04 09:08:27;;;;;;;;;;;;;;;;;;5039252;28;20599;-77
2023/04/04 09:10:53;;;;;;;;;;;;;;;;;;5022465;28;20508;-76
2023/04/04 09:13:19;;;;;;;;;;;;;;;;;;5040497;28;19928;-77
2023/04/04 09:15:45;;;;;;;;;;;;;;;;;;5049318;28;20376;-76
2023/04/04 09:18:11;;;;;;;;;;;;;;;;;;5019081;28;20011;-76
2023/04/04 09:20:37;;;;;;;;;;;;;;;;;;5057533;28;19935;-77
2023/04/04 09:23:03;;;;;;;;;;;;;;;;;;5034000;28;20366;-77
2023/04/04 09:25:30;;;;;;;;;;;;;;;;;;5044276;28;19928;-76
2023/04/04 09:27:56;;;;;;;;;;;;;;;;;;5054498;28;19931;-76
2023/04/04 09:30:22;;;;;;;;;;;;;;;;;;5062905;28;19936;-77
2023/04/04 09:32:48;;;;;;;;;;;;;;;;;;5037077;28;19933;-77
2023/04/04 09:35:15;;;;;;;;;;;;;;;;;;5041084;28;19925;-79
2023/04/04 09:37:41;;;;;;;;;;;;;;;;;;5039329;28;19960;-77
2023/04/04 09:40:07;;;;;;;;;;;;;;;;;;5022997;28;19968;-77
2023/04/04 09:42:33;;;;;;;;;;;;;;;;;;5041498;28;20055;-77
2023/04/04 09:44:59;;;;;;;;;;;;;;;;;;5011992;28;19967;-79
2023/04/04 09:47:26;;;;;;;;;;;;;;;;;;5042047;28;20459;-78
2023/04/04 09:49:52;;;;;;;;;;;;;;;;;;5030463;28;19976;-77
2023/04/04 09:52:19;;;;;;;;;;;;;;;;;;5032438;28;19971;-78
2023/04/04 09:54:45;;;;;;;;;;;;;;;;;;5034634;28;20326;-78
2023/04/04 09:57:11;;;;;;;;;;;;;;;;;;5028569;28;19932;-78
2023/04/04 09:59:37;;;;;;;;;;;;;;;;;;5040871;28;19924;-78
2023/04/04 10:02:03;;;;;;;;;;;;;;;;;;5039080;28;20304;-77
2023/04/04 10:04:29;;;;;;;;;;;;;;;;;;5041255;28;19924;-78
2023/04/04 10:06:55;;;;;;;;;;;;;;;;;;5030329;28;19929;-77
2023/04/04 10:09:21;;;;;;;;;;;;;;;;;;5029736;28;19933;-78
2023/04/04 10:11:47;;;;;;;;;;;;;;;;;;5043902;28;19928;-78
2023/04/04 10:14:13;;;;;;;;;;;;;;;;;;5029047;28;19958;-78
2023/04/04 10:16:39;;;;;;;;;;;;;;;;;;5036924;28;19929;-76
2023/04/04 10:19:08;;;;;;;;;;;;;;;;;;5031598;28;19924;-80
2023/04/04 10:21:34;;;;;;;;;;;;;;;;;;5024185;28;19925;-77
2023/04/04 10:24:02;;;;;;;;;;;;;;;;;;5042867;28;20330;-76
2023/04/04 10:26:28;;;;;;;;;;;;;;;;;;5031131;28;19929;-78
2023/04/04 10:28:57;;;;;;;;;;;;;;;;;;5053462;28;20043;-77
2023/04/04 10:31:23;;;;;;;;;;;;;;;;;;5027387;28;20330;-77
2023/04/04 10:33:49;;;;;;;;;;;;;;;;;;5037449;28;20486;-78
2023/04/04 10:36:14;;;;;;;;;;;;;;;;;;5036626;28;20324;-78
2023/04/04 10:38:40;;;;;;;;;;;;;;;;;;5032469;28;19955;-78
2023/04/04 10:41:06;;;;;;;;;;;;;;;;;;5042283;28;19934;-78
2023/04/04 10:43:32;;;;;;;;;;;;;;;;;;5038771;28;20062;-77
2023/04/04 10:45:58;;;;;;;;;;;;;;;;;;5037143;28;19928;-78
2023/04/04 10:48:25;;;;;;;;;;;;;;;;;;5037210;28;19932;-78
2023/04/04 10:50:51;;;;;;;;;;;;;;;;;;5019376;28;19929;-78
2023/04/04 10:53:16;;;;;;;;;;;;;;;;;;5054324;28;19940;-79
2023/04/04 10:55:44;;;;;;;;;;;;;;;;;;5015724;28;20019;-79
2023/04/04 10:58:11;;;;;;;;;;;;;;;;;;5036355;28;19924;-78
2023/04/04 11:00:37;;;;;;;;;;;;;;;;;;5031545;28;19978;-79
2023/04/04 11:03:03;;;;;;;;;;;;;;;;;;5035718;28;20015;-78
2023/04/04 11:05:29;;;;;;;;;;;;;;;;;;5020905;28;19932;-78
2023/04/04 11:07:56;;;;;;;;;;;;;;;;;;5033716;28;19924;-79
2023/04/04 11:10:22;;;;;;;;;;;;;;;;;;5054181;28;19940;-80
2023/04/04 11:12:51;;;;;;;;;;;;;;;;;;5033510;28;20424;-79
2023/04/04 11:15:17;;;;;;;;;;;;;;;;;;5034996;28;19932;-79
2023/04/04 11:17:43;;;;;;;;;;;;;;;;;;5036383;28;19925;-79
2023/04/04 11:20:09;;;;;;;;;;;;;;;;;;5018450;28;20351;-78
2023/04/04 11:22:35;;;;;;;;;;;;;;;;;;5039130;28;19932;-78
2023/04/04 11:25:01;;;;;;;;;;;;;;;;;;5028208;28;20430;-77
2023/04/04 11:27:27;;;;;;;;;;;;;;;;;;5030522;28;19929;-78
2023/04/04 11:29:53;;;;;;;;;;;;;;;;;;5052998;28;19929;-79
2023/04/04 11:32:19;;;;;;;;;;;;;;;;;;5052349;28;20001;-78
2023/04/04 11:34:45;;;;;;;;;;;;;;;;;;5039996;28;19925;-79
2023/04/04 11:37:11;;;;;;;;;;;;;;;;;;5029959;28;19967;-77
2023/04/04 11:39:37;;;;;;;;;;;;;;;;;;5058714;28;19924;-79
2023/04/04 11:42:03;;;;;;;;;;;;;;;;;;5053157;28;19929;-79
2023/04/04 11:44:29;;;;;;;;;;;;;;;;;;5028504;28;20422;-78
2023/04/04 11:46:55;;;;;;;;;;;;;;;;;;5039064;28;20029;-79
2023/04/04 11:49:21;;;;;;;;;;;;;;;;;;5046025;28;19924;-79
2023/04/04 11:51:48;;;;;;;;;;;;;;;;;;5065949;28;20027;-77
2023/04/04 11:54:14;;;;;;;;;;;;;;;;;;5036687;28;19928;-78
2023/04/04 11:56:40;;;;;;;;;;;;;;;;;;5037544;28;19925;-79
2023/04/04 11:59:09;;;;;;;;;;;;;;;;;;5030781;28;19925;-79
2023/04/04 12:01:35;;;;;;;;;;;;;;;;;;5014901;28;19929;-79
2023/04/04 12:04:01;;;;;;;;;;;;;;;;;;5026202;28;19932;-79
2023/04/04 12:06:27;;;;;;;;;;;;;;;;;;5027904;28;20034;-79
2023/04/04 12:08:54;;;;;;;;;;;;;;;;;;5042793;28;19975;-79
2023/04/04 12:11:21;;;;;;;;;;;;;;;;;;5031738;28;20464;-78
2023/04/04 12:13:47;;;;;;;;;;;;;;;;;;5032158;28;19935;-79
2023/04/04 12:16:13;;;;;;;;;;;;;;;;;;5040455;28;19976;-78
2023/04/04 12:18:39;;;;;;;;;;;;;;;;;;5011984;28;20344;-79
2023/04/04 12:21:06;;;;;;;;;;;;;;;;;;5037024;28;19932;-78
2023/04/04 12:23:32;;;;;;;;;;;;;;;;;;5028787;28;20277;-81
2023/04/04 12:25:58;;;;;;;;;;;;;;;;;;5024421;28;19936;-80
2023/04/04 12:28:25;;;;;;;;;;;;;;;;;;5031216;28;20010;-79
2023/04/04 12:30:51;;;;;;;;;;;;;;;;;;5030675;28;19932;-80
2023/04/04 12:33:17;;;;;;;;;;;;;;;;;;5032522;28;19928;-80
2023/04/04 12:35:42;;;;;;;;;;;;;;;;;;5031259;28;19979;-80
2023/04/04 12:38:12;;;;;;;;;;;;;;;;;;5030164;28;20368;-79
2023/04/04 12:40:38;;;;;;;;;;;;;;;;;;5024210;28;19932;-77
2023/04/04 12:43:04;;;;;;;;;;;;;;;;;;5026638;28;20764;-80
2023/04/04 12:45:30;;;;;;;;;;;;;;;;;;5029593;28;19928;-78
2023/04/04 12:47:57;;;;;;;;;;;;;;;;;;5054697;28;19931;-79
2023/04/04 12:50:23;;;;;;;;;;;;;;;;;;5033764;28;20818;-79
2023/04/04 12:52:50;;;;;;;;;;;;;;;;;;5030207;28;20010;-79
2023/04/04 12:55:16;;;;;;;;;;;;;;;;;;5042405;28;20292;-79
2023/04/04 12:57:42;;;;;;;;;;;;;;;;;;5019690;28;19932;-79
2023/04/04 13:00:08;;;;;;;;;;;;;;;;;;5051574;28;19935;-79
2023/04/04 13:02:34;;;;;;;;;;;;;;;;;;5020111;28;19932;-79
2023/04/04 13:05:00;;;;;;;;;;;;;;;;;;5035400;28;19972;-78
2023/04/04 13:07:26;;;;;;;;;;;;;;;;;;5017039;28;19935;-79
2023/04/04 13:09:52;;;;;;;;;;;;;;;;;;5038914;28;19929;-79
2023/04/04 13:12:18;;;;;;;;;;;;;;;;;;5015793;28;20368;-79
2023/04/04 13:14:44;;;;;;;;;;;;;;;;;;5033901;28;19933;-79
2023/04/04 13:17:10;;;;;;;;;;;;;;;;;;5035481;28;20731;-78
2023/04/04 13:19:36;;;;;;;;;;;;;;;;;;5044550;28;19967;-79
2023/04/04 13:22:02;;;;;;;;;;;;;;;;;;5039186;28;19924;-79
2023/04/04 13:24:28;;;;;;;;;;;;;;;;;;5040919;28;20391;-78
2023/04/04 13:26:54;;;;;;;;;;;;;;;;;;5023178;28;19951;-79
2023/04/04 13:29:20;;;;;;;;;;;;;;;;;;5036515;28;20485;-79
2023/04/04 13:31:46;;;;;;;;;;;;;;;;;;5027243;28;19935;-79
2023/04/04 13:34:12;;;;;;;;;;;;;;;;;;5025519;28;19932;-78
2023/04/04 13:36:38;;;;;;;;;;;;;;;;;;5042917;28;19978;-78
2023/04/04 13:39:04;;;;;;;;;;;;;;;;;;5036755;28;19924;-79
2023/04/04 13:41:30;;;;;;;;;;;;;;;;;;5037487;28;19994;-79
2023/04/04 13:43:56;;;;;;;;;;;;;;;;;;5040620;28;19979;-80
2023/04/04 13:46:22;;;;;;;;;;;;;;;;;;5057728;28;19982;-80
2023/04/04 13:48:48;;;;;;;;;;;;;;;;;;5044941;28;19929;-80
2023/04/04 13:51:14;;;;;;;;;;;;;;;;;;5032812;28;19929;-79
2023/04/04 13:53:40;;;;;;;;;;;;;;;;;;5041609;28;19924;-79
2023/04/04 13:56:06;;;;;;;;;;;;;;;;;;5044246;28;19982;-79
2023/04/04 13:58:32;;;;;;;;;;;;;;;;;;5041618;28;20436;-80
2023/04/04 14:00:58;;;;;;;;;;;;;;;;;;5039689;28;19975;-80
2023/04/04 14:03:24;;;;;;;;;;;;;;;;;;5035193;28;19959;-80
2023/04/04 14:05:50;;;;;;;;;;;;;;;;;;5035935;28;19940;-80
2023/04/04 14:08:16;;;;;;;;;;;;;;;;;;5041711;28;20435;-79
2023/04/04 14:10:41;;;;;;;;;;;;;;;;;;5037139;28;19932;-79
2023/04/04 14:13:07;;;;;;;;;;;;;;;;;;5060152;28;19929;-79
2023/04/04 14:15:33;;;;;;;;;;;;;;;;;;5046134;28;19951;-81
2023/04/04 14:17:59;;;;;;;;;;;;;;;;;;5039440;28;19979;-79
2023/04/04 14:20:25;;;;;;;;;;;;;;;;;;5035779;28;19986;-80
2023/04/04 14:22:51;;;;;;;;;;;;;;;;;;5040168;28;19928;-79
2023/04/04 14:25:17;;;;;;;;;;;;;;;;;;5039514;28;19936;-79
2023/04/04 14:27:43;;;;;;;;;;;;;;;;;;5037625;28;20642;-79
2023/04/04 14:30:09;;;;;;;;;;;;;;;;;;5041070;28;19935;-78
2023/04/04 14:32:35;;;;;;;;;;;;;;;;;;5029984;28;19939;-79
2023/04/04 14:35:00;;;;;;;;;;;;;;;;;;5040310;28;19928;-78
2023/04/04 14:37:26;;;;;;;;;;;;;;;;;;5026599;28;20560;-79
2023/04/04 14:39:52;;;;;;;;;;;;;;;;;;5027646;28;19929;-79
2023/04/04 14:42:18;;;;;;;;;;;;;;;;;;5036391;28;19928;-80
2023/04/04 14:44:44;;;;;;;;;;;;;;;;;;5043081;28;19982;-80
2023/04/04 14:47:10;;;;;;;;;;;;;;;;;;5022862;28;19928;-80
2023/04/04 14:49:36;;;;;;;;;;;;;;;;;;5036920;28;20015;-80
2023/04/04 14:52:02;;;;;;;;;;;;;;;;;;5054277;28;19963;-79
2023/04/04 14:54:28;;;;;;;;;;;;;;;;;;5032715;28;19964;-78
2023/04/04 14:56:55;;;;;;;;;;;;;;;;;;5052443;28;19972;-78
2023/04/04 14:59:20;;;;;;;;;;;;;;;;;;5038932;28;20394;-78
2023/04/04 15:01:46;;;;;;;;;;;;;;;;;;5029448;28;19929;-78
2023/04/04 15:04:12;;;;;;;;;;;;;;;;;;5030854;28;19955;-80
2023/04/04 15:06:38;;;;;;;;;;;;;;;;;;5014120;28;20001;-80
2023/04/04 15:09:05;;;;;;;;;;;;;;;;;;5019152;28;19992;-79
2023/04/04 15:11:31;;;;;;;;;;;;;;;;;;5041891;28;19939;-79
2023/04/04 15:13:57;;;;;;;;;;;;;;;;;;5027784;28;19932;-80
2023/04/04 15:16:24;;;;;;;;;;;;;;;;;;5016916;28;20418;-79
2023/04/04 15:18:50;;;;;;;;;;;;;;;;;;5034139;28;19929;-79
2023/04/04 15:21:16;;;;;;;;;;;;;;;;;;5023080;28;19924;-79
2023/04/04 15:23:41;;;;;;;;;;;;;;;;;;5034052;28;19952;-78
2023/04/04 15:28:58;;;;;;;;;;;;;;;;;;5035678;28;19979;-78
2023/04/04 15:31:25;;;;;;;;;;;;;;;;;;5029406;28;19924;-80
2023/04/04 15:33:53;;;;;;;;;;;;;;;;;;5057816;28;20011;-79
2023/04/04 15:36:22;;;;;;;;;;;;;;;;;;5052663;28;20035;-79
2023/04/04 15:38:48;;;;;;;;;;;;;;;;;;5033691;28;19987;-77
2023/04/04 15:41:14;;;;;;;;;;;;;;;;;;5051607;28;20568;-78
2023/04/04 15:43:40;;;;;;;;;;;;;;;;;;5053700;28;19932;-77
2023/04/04 15:46:06;;;;;;;;;;;;;;;;;;5049440;28;19928;-79
2023/04/04 15:48:33;;;;;;;;;;;;;;;;;;5049334;28;20359;-78
2023/04/04 15:51:01;;;;;;;;;;;;;;;;;;5036013;28;19929;-79
2023/04/04 15:53:36;;;;;;;;;;;;;;;;;;5051616;28;19970;-79
2023/04/04 15:56:02;;;;;;;;;;;;;;;;;;5014259;28;19933;-79
2023/04/04 15:58:28;;;;;;;;;;;;;;;;;;5056152;28;19936;-84
2023/04/04 16:00:54;;;;;;;;;;;;;;;;;;5049830;28;19968;-80
2023/04/04 16:03:21;;;;;;;;;;;;;;;;;;5056087;28;20066;-78
2023/04/04 16:05:46;;;;;;;;;;;;;;;;;;5050234;28;20416;-78
2023/04/04 16:08:13;;;;;;;;;;;;;;;;;;5032000;28;19933;-78
2023/04/04 16:10:39;;;;;;;;;;;;;;;;;;5030630;28;20309;-78
2023/04/04 16:13:05;;;;;;;;;;;;;;;;;;5031256;28;19932;-78
2023/04/04 16:15:31;;;;;;;;;;;;;;;;;;5032191;28;19982;-78
2023/04/04 16:17:58;;;;;;;;;;;;;;;;;;5030159;28;19958;-79
2023/04/04 16:20:24;;;;;;;;;;;;;;;;;;5032622;28;20296;-78
2023/04/04 16:22:50;;;;;;;;;;;;;;;;;;5027175;28;19931;-78
2023/04/04 16:25:16;;;;;;;;;;;;;;;;;;5029914;28;19988;-78
2023/04/04 16:27:42;;;;;;;;;;;;;;;;;;5030964;28;20031;-79
2023/04/04 16:30:07;;;;;;;;;;;;;;;;;;5046736;28;20466;-78
2023/04/04 16:32:34;;;;;;;;;;;;;;;;;;5029871;28;19928;-79
2023/04/04 16:35:00;;;;;;;;;;;;;;;;;;5033892;28;20059;-78
2023/04/04 16:37:26;;;;;;;;;;;;;;;;;;5035446;28;19979;-77
2023/04/04 16:39:52;;;;;;;;;;;;;;;;;;5021451;28;19935;-76